首页
METAR-TAF:

METAR-TAF

机场 :

Liverpool Bay, 西北特區, 加拿大

纬度: 69-36N, 经度: 130-54W, 海拔: 102米

当前天气观测

该预报发布于58分钟前的09:00 UTC
风速13节,风向南转南东
温度 -14°C
湿度 72%
气压 1007 hPa

METAR: CWLI 050900Z AUTO 15013KT ////SM //// NCD M14/M18 A2973

时间: 03:58 (09:58 UTC)


TAF: 丢失

超过4000个机场的气象观测和天气预报(METAR&TAF报告)。

可查询的气象台以黄色和红色小点在地图上表示。

将鼠标移到小点上方,可查看气象台名称。

然后点击查看天气观测和预报。

如需切换地图:点击带黑十字的绿色按钮放大地图;点击带横线的绿色按钮缩小地图;或者点击绿色箭头查看邻近地区的地图。


METAR-TAF: